sensor_id;sensor_type;location;lat;lon;timestamp;P1;durP1;ratioP1;P2;durP2;ratioP2
6928;SDS011;3504;52.616;13.238;2023-02-01T00:00:23;27.53;;;5.80;;
6928;SDS011;3504;52.616;13.238;2023-02-01T00:05:24;28.17;;;5.30;;
6928;SDS011;3504;52.616;13.238;2023-02-01T00:10:25;24.30;;;5.87;;
6928;SDS011;3504;52.616;13.238;2023-02-01T00:15:25;23.17;;;5.03;;
6928;SDS011;3504;52.616;13.238;2023-02-01T00:20:26;26.50;;;5.17;;
6928;SDS011;3504;52.616;13.238;2023-02-01T00:25:26;26.63;;;6.30;;
6928;SDS011;3504;52.616;13.238;2023-02-01T00:30:27;20.43;;;4.57;;
6928;SDS011;3504;52.616;13.238;2023-02-01T00:35:27;16.60;;;3.93;;
6928;SDS011;3504;52.616;13.238;2023-02-01T00:40:28;18.47;;;4.47;;
6928;SDS011;3504;52.616;13.238;2023-02-01T00:45:28;15.47;;;3.30;;
6928;SDS011;3504;52.616;13.238;2023-02-01T00:50:29;11.77;;;3.33;;
6928;SDS011;3504;52.616;13.238;2023-02-01T00:55:30;7.57;;;2.93;;
6928;SDS011;3504;52.616;13.238;2023-02-01T01:00:30;11.17;;;3.17;;
6928;SDS011;3504;52.616;13.238;2023-02-01T01:05:31;15.50;;;3.47;;
6928;SDS011;3504;52.616;13.238;2023-02-01T01:10:32;13.20;;;3.47;;
6928;SDS011;3504;52.616;13.238;2023-02-01T01:15:36;19.27;;;3.40;;
6928;SDS011;3504;52.616;13.238;2023-02-01T01:20:39;16.27;;;3.40;;
6928;SDS011;3504;52.616;13.238;2023-02-01T01:25:41;16.53;;;3.43;;
6928;SDS011;3504;52.616;13.238;2023-02-01T01:30:41;13.63;;;3.53;;
6928;SDS011;3504;52.616;13.238;2023-02-01T01:35:42;16.67;;;4.23;;
6928;SDS011;3504;52.616;13.238;2023-02-01T01:40:46;15.63;;;4.03;;
6928;SDS011;3504;52.616;13.238;2023-02-01T01:45:50;18.20;;;4.43;;
6928;SDS011;3504;52.616;13.238;2023-02-01T01:50:54;20.00;;;4.50;;
6928;SDS011;3504;52.616;13.238;2023-02-01T01:56:17;25.43;;;4.37;;
6928;SDS011;3504;52.616;13.238;2023-02-01T02:01:17;15.70;;;4.60;;
6928;SDS011;3504;52.616;13.238;2023-02-01T02:06:20;21.33;;;4.27;;
6928;SDS011;3504;52.616;13.238;2023-02-01T02:11:40;18.23;;;4.03;;
6928;SDS011;3504;52.616;13.238;2023-02-01T02:22:38;22.87;;;5.33;;
6928;SDS011;3504;52.616;13.238;2023-02-01T02:27:59;17.47;;;4.37;;
6928;SDS011;3504;52.616;13.238;2023-02-01T02:33:32;22.17;;;4.87;;
6928;SDS011;3504;52.616;13.238;2023-02-01T02:44:09;23.33;;;4.43;;
6928;SDS011;3504;52.616;13.238;2023-02-01T02:49:40;21.07;;;4.20;;
6928;SDS011;3504;52.616;13.238;2023-02-01T02:55:09;18.00;;;3.83;;
6928;SDS011;3504;52.616;13.238;2023-02-01T03:00:12;25.97;;;5.67;;
6928;SDS011;3504;52.616;13.238;2023-02-01T03:05:36;20.17;;;4.90;;
6928;SDS011;3504;52.616;13.238;2023-02-01T03:16:13;17.87;;;4.77;;
6928;SDS011;3504;52.616;13.238;2023-02-01T03:21:36;25.90;;;5.40;;
6928;SDS011;3504;52.616;13.238;2023-02-01T03:26:54;21.07;;;4.50;;
6928;SDS011;3504;52.616;13.238;2023-02-01T03:31:57;15.57;;;4.77;;
6928;SDS011;3504;52.616;13.238;2023-02-01T03:36:59;21.27;;;4.37;;
6928;SDS011;3504;52.616;13.238;2023-02-01T03:42:15;21.30;;;5.17;;
6928;SDS011;3504;52.616;13.238;2023-02-01T03:47:21;19.70;;;4.93;;
6928;SDS011;3504;52.616;13.238;2023-02-01T03:52:44;18.50;;;4.43;;
6928;SDS011;3504;52.616;13.238;2023-02-01T03:57:52;20.50;;;4.53;;
6928;SDS011;3504;52.616;13.238;2023-02-01T04:02:55;23.27;;;4.83;;
6928;SDS011;3504;52.616;13.238;2023-02-01T04:07:56;21.63;;;5.47;;
6928;SDS011;3504;52.616;13.238;2023-02-01T04:12:57;17.97;;;4.77;;
6928;SDS011;3504;52.616;13.238;2023-02-01T04:17:57;24.37;;;4.80;;
6928;SDS011;3504;52.616;13.238;2023-02-01T04:22:58;25.27;;;4.70;;
6928;SDS011;3504;52.616;13.238;2023-02-01T04:27:58;15.33;;;3.97;;
6928;SDS011;3504;52.616;13.238;2023-02-01T04:32:59;27.23;;;5.37;;
6928;SDS011;3504;52.616;13.238;2023-02-01T04:37:59;19.60;;;4.50;;
6928;SDS011;3504;52.616;13.238;2023-02-01T04:43:00;25.37;;;4.67;;
6928;SDS011;3504;52.616;13.238;2023-02-01T04:48:01;23.53;;;4.97;;
6928;SDS011;3504;52.616;13.238;2023-02-01T04:53:02;22.80;;;5.17;;
6928;SDS011;3504;52.616;13.238;2023-02-01T04:58:02;20.20;;;6.07;;
6928;SDS011;3504;52.616;13.238;2023-02-01T05:03:03;25.33;;;5.57;;
6928;SDS011;3504;52.616;13.238;2023-02-01T05:08:03;25.63;;;5.73;;
6928;SDS011;3504;52.616;13.238;2023-02-01T05:13:04;25.47;;;4.97;;
6928;SDS011;3504;52.616;13.238;2023-02-01T05:18:23;18.23;;;5.30;;
6928;SDS011;3504;52.616;13.238;2023-02-01T05:23:23;20.77;;;5.00;;
6928;SDS011;3504;52.616;13.238;2023-02-01T05:28:24;25.03;;;6.23;;
6928;SDS011;3504;52.616;13.238;2023-02-01T05:33:24;23.77;;;4.67;;
6928;SDS011;3504;52.616;13.238;2023-02-01T05:38:25;21.37;;;5.07;;
6928;SDS011;3504;52.616;13.238;2023-02-01T05:43:25;20.33;;;4.60;;
6928;SDS011;3504;52.616;13.238;2023-02-01T05:48:26;20.83;;;5.30;;
6928;SDS011;3504;52.616;13.238;2023-02-01T05:53:27;23.60;;;6.13;;
6928;SDS011;3504;52.616;13.238;2023-02-01T05:58:27;29.30;;;5.73;;
6928;SDS011;3504;52.616;13.238;2023-02-01T06:03:28;24.20;;;5.07;;
6928;SDS011;3504;52.616;13.238;2023-02-01T06:08:28;28.00;;;5.83;;
6928;SDS011;3504;52.616;13.238;2023-02-01T06:13:29;18.23;;;5.17;;
6928;SDS011;3504;52.616;13.238;2023-02-01T06:18:30;22.53;;;5.00;;
6928;SDS011;3504;52.616;13.238;2023-02-01T06:23:30;21.27;;;5.80;;
6928;SDS011;3504;52.616;13.238;2023-02-01T06:28:31;20.67;;;5.57;;
6928;SDS011;3504;52.616;13.238;2023-02-01T06:33:33;17.63;;;5.47;;
6928;SDS011;3504;52.616;13.238;2023-02-01T06:38:34;25.50;;;5.30;;
6928;SDS011;3504;52.616;13.238;2023-02-01T06:43:35;19.67;;;5.37;;
6928;SDS011;3504;52.616;13.238;2023-02-01T06:48:37;17.67;;;4.77;;
6928;SDS011;3504;52.616;13.238;2023-02-01T06:53:37;22.80;;;4.97;;
6928;SDS011;3504;52.616;13.238;2023-02-01T06:58:38;24.87;;;4.83;;
6928;SDS011;3504;52.616;13.238;2023-02-01T07:03:39;21.80;;;5.97;;
6928;SDS011;3504;52.616;13.238;2023-02-01T07:08:40;19.53;;;4.87;;
6928;SDS011;3504;52.616;13.238;2023-02-01T07:13:40;14.83;;;4.80;;
6928;SDS011;3504;52.616;13.238;2023-02-01T07:18:41;17.57;;;4.57;;
6928;SDS011;3504;52.616;13.238;2023-02-01T07:23:42;21.33;;;6.13;;
6928;SDS011;3504;52.616;13.238;2023-02-01T07:28:42;18.37;;;5.33;;
6928;SDS011;3504;52.616;13.238;2023-02-01T07:33:43;16.07;;;4.70;;
6928;SDS011;3504;52.616;13.238;2023-02-01T07:38:44;22.30;;;5.07;;
6928;SDS011;3504;52.616;13.238;2023-02-01T07:43:47;18.77;;;5.03;;
6928;SDS011;3504;52.616;13.238;2023-02-01T07:48:47;13.53;;;5.50;;
6928;SDS011;3504;52.616;13.238;2023-02-01T07:53:48;15.53;;;4.87;;
6928;SDS011;3504;52.616;13.238;2023-02-01T07:58:52;18.97;;;5.60;;
6928;SDS011;3504;52.616;13.238;2023-02-01T08:03:56;18.33;;;4.47;;
6928;SDS011;3504;52.616;13.238;2023-02-01T08:08:59;12.17;;;4.20;;
6928;SDS011;3504;52.616;13.238;2023-02-01T08:14:00;15.53;;;4.50;;
6928;SDS011;3504;52.616;13.238;2023-02-01T08:19:00;14.43;;;4.03;;
6928;SDS011;3504;52.616;13.238;2023-02-01T08:24:01;15.33;;;4.07;;
6928;SDS011;3504;52.616;13.238;2023-02-01T08:29:04;11.70;;;5.03;;
6928;SDS011;3504;52.616;13.238;2023-02-01T08:34:07;12.80;;;4.63;;
6928;SDS011;3504;52.616;13.238;2023-02-01T08:39:09;11.20;;;4.47;;
6928;SDS011;3504;52.616;13.238;2023-02-01T08:44:11;9.13;;;3.80;;
6928;SDS011;3504;52.616;13.238;2023-02-01T08:49:11;6.63;;;3.57;;
6928;SDS011;3504;52.616;13.238;2023-02-01T08:54:12;7.83;;;3.40;;
6928;SDS011;3504;52.616;13.238;2023-02-01T08:59:12;9.53;;;3.90;;
6928;SDS011;3504;52.616;13.238;2023-02-01T09:04:13;12.73;;;4.10;;
6928;SDS011;3504;52.616;13.238;2023-02-01T09:09:13;8.80;;;2.90;;
6928;SDS011;3504;52.616;13.238;2023-02-01T09:14:13;7.17;;;2.70;;
6928;SDS011;3504;52.616;13.238;2023-02-01T09:19:14;8.37;;;2.77;;
6928;SDS011;3504;52.616;13.238;2023-02-01T09:24:15;8.37;;;2.50;;
6928;SDS011;3504;52.616;13.238;2023-02-01T09:29:15;8.17;;;2.27;;
6928;SDS011;3504;52.616;13.238;2023-02-01T09:34:16;4.00;;;1.80;;
6928;SDS011;3504;52.616;13.238;2023-02-01T09:39:17;4.50;;;1.63;;
6928;SDS011;3504;52.616;13.238;2023-02-01T09:44:22;3.27;;;1.90;;
6928;SDS011;3504;52.616;13.238;2023-02-01T09:50:10;5.50;;;1.67;;
6928;SDS011;3504;52.616;13.238;2023-02-01T09:55:21;7.07;;;2.23;;
6928;SDS011;3504;52.616;13.238;2023-02-01T10:00:40;3.30;;;1.50;;
6928;SDS011;3504;52.616;13.238;2023-02-01T10:11:21;8.20;;;1.63;;
6928;SDS011;3504;52.616;13.238;2023-02-01T10:16:57;5.50;;;2.07;;
6928;SDS011;3504;52.616;13.238;2023-02-01T10:22:10;3.53;;;2.03;;
6928;SDS011;3504;52.616;13.238;2023-02-01T10:27:25;8.23;;;2.33;;
6928;SDS011;3504;52.616;13.238;2023-02-01T10:32:34;5.47;;;2.20;;
6928;SDS011;3504;52.616;13.238;2023-02-01T10:37:34;6.23;;;2.30;;
6928;SDS011;3504;52.616;13.238;2023-02-01T10:42:35;10.50;;;2.80;;
6928;SDS011;3504;52.616;13.238;2023-02-01T10:47:36;7.90;;;2.30;;
6928;SDS011;3504;52.616;13.238;2023-02-01T10:52:38;7.43;;;2.70;;
6928;SDS011;3504;52.616;13.238;2023-02-01T10:57:59;11.20;;;4.40;;
6928;SDS011;3504;52.616;13.238;2023-02-01T11:03:03;16.27;;;6.53;;
6928;SDS011;3504;52.616;13.238;2023-02-01T11:08:45;18.70;;;4.93;;
6928;SDS011;3504;52.616;13.238;2023-02-01T11:14:04;9.37;;;3.87;;
6928;SDS011;3504;52.616;13.238;2023-02-01T11:19:14;19.30;;;4.97;;
6928;SDS011;3504;52.616;13.238;2023-02-01T11:24:22;11.33;;;3.20;;
6928;SDS011;3504;52.616;13.238;2023-02-01T11:29:26;8.83;;;4.10;;
6928;SDS011;3504;52.616;13.238;2023-02-01T11:34:37;9.80;;;4.30;;
6928;SDS011;3504;52.616;13.238;2023-02-01T11:39:57;10.90;;;3.57;;
6928;SDS011;3504;52.616;13.238;2023-02-01T11:50:42;8.30;;;4.00;;
6928;SDS011;3504;52.616;13.238;2023-02-01T12:01:27;7.67;;;3.03;;
6928;SDS011;3504;52.616;13.238;2023-02-01T12:12:24;6.27;;;3.13;;
6928;SDS011;3504;52.616;13.238;2023-02-01T12:17:46;9.00;;;2.73;;
6928;SDS011;3504;52.616;13.238;2023-02-01T12:23:06;7.00;;;2.70;;
6928;SDS011;3504;52.616;13.238;2023-02-01T12:35:09;13.33;;;5.87;;
6928;SDS011;3504;52.616;13.238;2023-02-01T12:45:51;14.68;;;4.88;;
6928;SDS011;3504;52.616;13.238;2023-02-01T12:51:06;13.17;;;4.10;;
6928;SDS011;3504;52.616;13.238;2023-02-01T12:56:15;13.47;;;3.77;;
6928;SDS011;3504;52.616;13.238;2023-02-01T13:01:36;10.40;;;3.27;;
6928;SDS011;3504;52.616;13.238;2023-02-01T13:06:43;8.33;;;1.87;;
6928;SDS011;3504;52.616;13.238;2023-02-01T13:11:49;3.23;;;1.60;;
6928;SDS011;3504;52.616;13.238;2023-02-01T13:16:56;5.77;;;1.87;;
6928;SDS011;3504;52.616;13.238;2023-02-01T13:22:03;8.33;;;2.87;;
6928;SDS011;3504;52.616;13.238;2023-02-01T13:27:13;10.93;;;3.00;;
6928;SDS011;3504;52.616;13.238;2023-02-01T13:43:38;11.77;;;3.10;;
6928;SDS011;3504;52.616;13.238;2023-02-01T13:53:57;7.83;;;3.10;;
6928;SDS011;3504;52.616;13.238;2023-02-01T13:58:57;9.67;;;3.63;;
6928;SDS011;3504;52.616;13.238;2023-02-01T14:04:47;12.03;;;3.60;;
6928;SDS011;3504;52.616;13.238;2023-02-01T14:09:49;10.13;;;3.50;;
6928;SDS011;3504;52.616;13.238;2023-02-01T14:14:50;10.87;;;2.93;;
6928;SDS011;3504;52.616;13.238;2023-02-01T14:19:50;7.73;;;2.87;;
6928;SDS011;3504;52.616;13.238;2023-02-01T14:25:58;15.63;;;3.30;;
6928;SDS011;3504;52.616;13.238;2023-02-01T14:31:13;11.23;;;3.47;;
6928;SDS011;3504;52.616;13.238;2023-02-01T14:36:50;13.33;;;3.43;;
6928;SDS011;3504;52.616;13.238;2023-02-01T14:42:04;14.57;;;4.77;;
6928;SDS011;3504;52.616;13.238;2023-02-01T14:52:23;17.17;;;4.93;;
6928;SDS011;3504;52.616;13.238;2023-02-01T14:57:34;15.70;;;4.33;;
6928;SDS011;3504;52.616;13.238;2023-02-01T15:02:39;9.40;;;3.80;;
6928;SDS011;3504;52.616;13.238;2023-02-01T15:07:40;8.47;;;3.03;;
6928;SDS011;3504;52.616;13.238;2023-02-01T15:12:41;8.50;;;3.00;;
6928;SDS011;3504;52.616;13.238;2023-02-01T15:17:54;9.73;;;2.80;;
6928;SDS011;3504;52.616;13.238;2023-02-01T15:23:04;9.07;;;3.10;;
6928;SDS011;3504;52.616;13.238;2023-02-01T15:28:16;3.93;;;1.70;;
6928;SDS011;3504;52.616;13.238;2023-02-01T15:33:18;4.93;;;2.00;;
6928;SDS011;3504;52.616;13.238;2023-02-01T15:43:29;2.87;;;2.00;;
6928;SDS011;3504;52.616;13.238;2023-02-01T15:48:37;3.97;;;1.47;;
6928;SDS011;3504;52.616;13.238;2023-02-01T15:53:52;1.10;;;1.00;;
6928;SDS011;3504;52.616;13.238;2023-02-01T15:58:58;1.83;;;1.30;;
6928;SDS011;3504;52.616;13.238;2023-02-01T16:04:21;2.47;;;1.70;;
6928;SDS011;3504;52.616;13.238;2023-02-01T16:09:25;1.93;;;1.10;;
6928;SDS011;3504;52.616;13.238;2023-02-01T16:14:41;2.57;;;1.40;;
6928;SDS011;3504;52.616;13.238;2023-02-01T16:19:41;1.67;;;0.90;;
6928;SDS011;3504;52.616;13.238;2023-02-01T16:24:42;1.87;;;1.10;;
6928;SDS011;3504;52.616;13.238;2023-02-01T16:29:42;1.83;;;1.07;;
6928;SDS011;3504;52.616;13.238;2023-02-01T16:34:43;1.53;;;1.00;;
6928;SDS011;3504;52.616;13.238;2023-02-01T16:39:43;1.23;;;1.13;;
6928;SDS011;3504;52.616;13.238;2023-02-01T16:44:44;1.13;;;1.03;;
6928;SDS011;3504;52.616;13.238;2023-02-01T16:49:44;2.13;;;1.40;;
6928;SDS011;3504;52.616;13.238;2023-02-01T16:54:46;1.70;;;1.20;;
6928;SDS011;3504;52.616;13.238;2023-02-01T16:59:47;1.30;;;1.20;;
6928;SDS011;3504;52.616;13.238;2023-02-01T17:04:47;5.10;;;1.60;;
6928;SDS011;3504;52.616;13.238;2023-02-01T17:09:48;1.63;;;1.40;;
6928;SDS011;3504;52.616;13.238;2023-02-01T17:14:49;1.93;;;1.67;;
6928;SDS011;3504;52.616;13.238;2023-02-01T17:19:51;3.87;;;2.00;;
6928;SDS011;3504;52.616;13.238;2023-02-01T17:24:53;6.57;;;2.10;;
6928;SDS011;3504;52.616;13.238;2023-02-01T17:29:53;3.00;;;1.87;;
6928;SDS011;3504;52.616;13.238;2023-02-01T17:34:56;3.93;;;2.50;;
6928;SDS011;3504;52.616;13.238;2023-02-01T17:39:57;4.27;;;2.23;;
6928;SDS011;3504;52.616;13.238;2023-02-01T17:44:59;4.33;;;3.07;;
6928;SDS011;3504;52.616;13.238;2023-02-01T17:50:13;5.43;;;2.60;;
6928;SDS011;3504;52.616;13.238;2023-02-01T17:55:15;5.43;;;2.30;;
6928;SDS011;3504;52.616;13.238;2023-02-01T18:00:21;4.47;;;2.23;;
6928;SDS011;3504;52.616;13.238;2023-02-01T18:05:30;5.17;;;2.07;;
6928;SDS011;3504;52.616;13.238;2023-02-01T18:10:40;4.23;;;2.63;;
6928;SDS011;3504;52.616;13.238;2023-02-01T18:15:40;8.07;;;2.43;;
6928;SDS011;3504;52.616;13.238;2023-02-01T18:20:41;7.43;;;2.37;;
6928;SDS011;3504;52.616;13.238;2023-02-01T18:25:44;9.57;;;2.60;;
6928;SDS011;3504;52.616;13.238;2023-02-01T18:30:46;5.90;;;2.77;;
6928;SDS011;3504;52.616;13.238;2023-02-01T18:35:49;7.47;;;2.67;;
6928;SDS011;3504;52.616;13.238;2023-02-01T18:40:51;9.07;;;3.20;;
6928;SDS011;3504;52.616;13.238;2023-02-01T18:45:53;7.70;;;2.23;;
6928;SDS011;3504;52.616;13.238;2023-02-01T18:50:54;8.33;;;2.60;;
6928;SDS011;3504;52.616;13.238;2023-02-01T18:55:58;10.73;;;2.67;;
6928;SDS011;3504;52.616;13.238;2023-02-01T19:01:06;7.27;;;2.50;;
6928;SDS011;3504;52.616;13.238;2023-02-01T19:06:11;7.10;;;2.67;;
6928;SDS011;3504;52.616;13.238;2023-02-01T19:11:12;8.87;;;2.47;;
6928;SDS011;3504;52.616;13.238;2023-02-01T19:16:12;12.53;;;3.30;;
6928;SDS011;3504;52.616;13.238;2023-02-01T19:21:13;14.80;;;3.53;;
6928;SDS011;3504;52.616;13.238;2023-02-01T19:26:15;12.40;;;3.63;;
6928;SDS011;3504;52.616;13.238;2023-02-01T19:31:16;11.43;;;3.40;;
6928;SDS011;3504;52.616;13.238;2023-02-01T19:36:17;11.00;;;3.97;;
6928;SDS011;3504;52.616;13.238;2023-02-01T19:41:18;19.07;;;5.33;;
6928;SDS011;3504;52.616;13.238;2023-02-01T19:46:18;11.50;;;2.90;;
6928;SDS011;3504;52.616;13.238;2023-02-01T19:51:19;15.83;;;4.33;;
6928;SDS011;3504;52.616;13.238;2023-02-01T19:56:19;17.73;;;5.23;;
6928;SDS011;3504;52.616;13.238;2023-02-01T20:01:20;12.67;;;3.83;;
6928;SDS011;3504;52.616;13.238;2023-02-01T20:06:20;15.00;;;4.83;;
6928;SDS011;3504;52.616;13.238;2023-02-01T20:11:22;17.27;;;3.47;;
6928;SDS011;3504;52.616;13.238;2023-02-01T20:16:25;18.93;;;3.70;;
6928;SDS011;3504;52.616;13.238;2023-02-01T20:21:26;17.77;;;4.33;;
6928;SDS011;3504;52.616;13.238;2023-02-01T20:26:26;16.63;;;3.10;;
6928;SDS011;3504;52.616;13.238;2023-02-01T20:31:27;13.97;;;3.30;;
6928;SDS011;3504;52.616;13.238;2023-02-01T20:36:29;11.23;;;3.43;;
6928;SDS011;3504;52.616;13.238;2023-02-01T20:41:30;10.53;;;3.20;;
6928;SDS011;3504;52.616;13.238;2023-02-01T20:46:31;19.47;;;2.87;;
6928;SDS011;3504;52.616;13.238;2023-02-01T20:51:31;12.57;;;3.47;;
6928;SDS011;3504;52.616;13.238;2023-02-01T20:56:32;12.50;;;3.57;;
6928;SDS011;3504;52.616;13.238;2023-02-01T21:01:32;14.20;;;4.03;;
6928;SDS011;3504;52.616;13.238;2023-02-01T21:06:33;8.47;;;2.73;;
6928;SDS011;3504;52.616;13.238;2023-02-01T21:11:33;11.33;;;3.07;;
6928;SDS011;3504;52.616;13.238;2023-02-01T21:16:34;11.93;;;2.87;;
6928;SDS011;3504;52.616;13.238;2023-02-01T21:21:34;11.10;;;3.00;;
6928;SDS011;3504;52.616;13.238;2023-02-01T21:26:35;10.50;;;3.40;;
6928;SDS011;3504;52.616;13.238;2023-02-01T21:31:42;12.93;;;3.10;;
6928;SDS011;3504;52.616;13.238;2023-02-01T21:36:42;12.97;;;3.10;;
6928;SDS011;3504;52.616;13.238;2023-02-01T21:41:43;12.53;;;3.03;;
6928;SDS011;3504;52.616;13.238;2023-02-01T21:47:02;7.27;;;2.60;;
6928;SDS011;3504;52.616;13.238;2023-02-01T21:52:02;12.70;;;3.20;;
6928;SDS011;3504;52.616;13.238;2023-02-01T21:57:03;13.63;;;3.57;;
6928;SDS011;3504;52.616;13.238;2023-02-01T22:02:12;7.97;;;3.40;;
6928;SDS011;3504;52.616;13.238;2023-02-01T22:07:15;15.07;;;3.23;;
6928;SDS011;3504;52.616;13.238;2023-02-01T22:12:15;12.27;;;3.20;;
6928;SDS011;3504;52.616;13.238;2023-02-01T22:17:16;15.43;;;3.47;;
6928;SDS011;3504;52.616;13.238;2023-02-01T22:22:17;12.93;;;2.60;;
6928;SDS011;3504;52.616;13.238;2023-02-01T22:27:17;9.40;;;2.87;;
6928;SDS011;3504;52.616;13.238;2023-02-01T22:32:18;12.20;;;3.20;;
6928;SDS011;3504;52.616;13.238;2023-02-01T22:37:18;11.17;;;2.80;;
6928;SDS011;3504;52.616;13.238;2023-02-01T22:42:19;12.37;;;2.37;;
6928;SDS011;3504;52.616;13.238;2023-02-01T22:47:19;13.33;;;3.03;;
6928;SDS011;3504;52.616;13.238;2023-02-01T22:52:22;15.77;;;3.13;;
6928;SDS011;3504;52.616;13.238;2023-02-01T22:57:23;13.93;;;2.87;;
6928;SDS011;3504;52.616;13.238;2023-02-01T23:02:24;12.77;;;3.17;;
6928;SDS011;3504;52.616;13.238;2023-02-01T23:07:24;14.37;;;3.27;;
6928;SDS011;3504;52.616;13.238;2023-02-01T23:12:25;12.03;;;3.30;;
6928;SDS011;3504;52.616;13.238;2023-02-01T23:17:25;13.00;;;3.33;;
6928;SDS011;3504;52.616;13.238;2023-02-01T23:22:25;15.43;;;4.03;;
6928;SDS011;3504;52.616;13.238;2023-02-01T23:27:26;19.00;;;4.07;;
6928;SDS011;3504;52.616;13.238;2023-02-01T23:32:27;20.97;;;4.43;;
6928;SDS011;3504;52.616;13.238;2023-02-01T23:37:27;11.40;;;3.70;;
6928;SDS011;3504;52.616;13.238;2023-02-01T23:42:28;14.33;;;3.53;;
6928;SDS011;3504;52.616;13.238;2023-02-01T23:47:28;17.50;;;4.43;;
6928;SDS011;3504;52.616;13.238;2023-02-01T23:52:29;18.77;;;4.13;;
6928;SDS011;3504;52.616;13.238;2023-02-01T23:57:29;21.23;;;4.40;;
